sensor_id;sensor_type;location;lat;lon;timestamp;pressure;altitude;pressure_sealevel;temperature;humidity
73024;BME280;61199;47.526;8.538;2022-11-30T00:01:13;96600.75;;;9.91;73.70
73024;BME280;61199;47.526;8.538;2022-11-30T00:03:41;96599.00;;;9.80;74.31
73024;BME280;61199;47.526;8.538;2022-11-30T00:06:09;96600.34;;;9.75;74.29
73024;BME280;61199;47.526;8.538;2022-11-30T00:08:36;96599.97;;;9.79;74.29
73024;BME280;61199;47.526;8.538;2022-11-30T00:11:16;96593.78;;;9.80;74.16
73024;BME280;61199;47.526;8.538;2022-11-30T00:13:47;96591.59;;;9.85;73.83
73024;BME280;61199;47.526;8.538;2022-11-30T00:16:13;96600.66;;;9.81;74.15
73024;BME280;61199;47.526;8.538;2022-11-30T00:18:40;96597.69;;;9.86;74.04
73024;BME280;61199;47.526;8.538;2022-11-30T00:21:10;96596.84;;;9.85;73.78
73024;BME280;61199;47.526;8.538;2022-11-30T00:23:38;96595.69;;;9.78;73.72
73024;BME280;61199;47.526;8.538;2022-11-30T00:26:07;96594.47;;;9.82;73.74
73024;BME280;61199;47.526;8.538;2022-11-30T00:28:35;96599.81;;;9.81;73.82
73024;BME280;61199;47.526;8.538;2022-11-30T00:31:10;96589.72;;;9.87;73.69
73024;BME280;61199;47.526;8.538;2022-11-30T00:33:38;96591.06;;;9.82;73.82
73024;BME280;61199;47.526;8.538;2022-11-30T00:36:13;96592.94;;;9.80;73.72
73024;BME280;61199;47.526;8.538;2022-11-30T00:38:39;96591.06;;;9.82;73.66
73024;BME280;61199;47.526;8.538;2022-11-30T00:41:06;96590.47;;;9.78;73.79
73024;BME280;61199;47.526;8.538;2022-11-30T00:43:32;96587.84;;;9.78;73.69
73024;BME280;61199;47.526;8.538;2022-11-30T00:45:59;96596.28;;;9.82;73.75
73024;BME280;61199;47.526;8.538;2022-11-30T00:48:26;96589.13;;;9.84;73.72
73024;BME280;61199;47.526;8.538;2022-11-30T00:50:52;96591.97;;;9.81;73.35
73024;BME280;61199;47.526;8.538;2022-11-30T00:53:19;96598.31;;;9.78;74.01
73024;BME280;61199;47.526;8.538;2022-11-30T00:55:47;96596.41;;;9.80;73.89
73024;BME280;61199;47.526;8.538;2022-11-30T00:58:13;96596.97;;;9.84;73.58
73024;BME280;61199;47.526;8.538;2022-11-30T01:00:40;96588.59;;;9.90;73.47
73024;BME280;61199;47.526;8.538;2022-11-30T01:03:07;96598.00;;;9.92;73.30
73024;BME280;61199;47.526;8.538;2022-11-30T01:05:34;96592.56;;;9.84;73.50
73024;BME280;61199;47.526;8.538;2022-11-30T01:08:02;96596.03;;;9.85;73.22
73024;BME280;61199;47.526;8.538;2022-11-30T01:10:29;96594.94;;;9.87;73.44
73024;BME280;61199;47.526;8.538;2022-11-30T01:12:55;96601.69;;;9.90;73.46
73024;BME280;61199;47.526;8.538;2022-11-30T01:15:22;96598.25;;;9.89;73.21
73024;BME280;61199;47.526;8.538;2022-11-30T01:17:48;96599.13;;;9.79;73.42
73024;BME280;61199;47.526;8.538;2022-11-30T01:20:15;96591.53;;;9.76;73.56
73024;BME280;61199;47.526;8.538;2022-11-30T01:22:41;96599.13;;;9.58;74.45
73024;BME280;61199;47.526;8.538;2022-11-30T01:25:08;96595.88;;;9.66;74.34
73024;BME280;61199;47.526;8.538;2022-11-30T01:27:34;96603.13;;;9.62;74.33
73024;BME280;61199;47.526;8.538;2022-11-30T01:30:00;96600.94;;;9.67;74.46
73024;BME280;61199;47.526;8.538;2022-11-30T01:32:27;96602.25;;;9.73;74.56
73024;BME280;61199;47.526;8.538;2022-11-30T01:34:53;96606.38;;;9.75;74.15
73024;BME280;61199;47.526;8.538;2022-11-30T01:37:19;96602.25;;;9.73;74.25
73024;BME280;61199;47.526;8.538;2022-11-30T01:39:46;96607.34;;;9.74;74.40
73024;BME280;61199;47.526;8.538;2022-11-30T01:42:17;96603.56;;;9.67;74.14
73024;BME280;61199;47.526;8.538;2022-11-30T01:44:58;96603.19;;;9.72;74.17
73024;BME280;61199;47.526;8.538;2022-11-30T01:47:40;96614.50;;;9.72;73.97
73024;BME280;61199;47.526;8.538;2022-11-30T01:50:16;96610.47;;;9.68;74.15
73024;BME280;61199;47.526;8.538;2022-11-30T01:52:46;96616.78;;;9.66;73.97
73024;BME280;61199;47.526;8.538;2022-11-30T01:55:35;96620.69;;;9.71;74.22
73024;BME280;61199;47.526;8.538;2022-11-30T02:00:34;96614.88;;;9.68;73.89
73024;BME280;61199;47.526;8.538;2022-11-30T02:05:32;96609.97;;;9.74;73.71
73024;BME280;61199;47.526;8.538;2022-11-30T02:07:59;96613.53;;;9.73;73.85
73024;BME280;61199;47.526;8.538;2022-11-30T02:10:31;96614.38;;;9.74;73.98
73024;BME280;61199;47.526;8.538;2022-11-30T02:15:46;96616.41;;;9.70;73.81
73024;BME280;61199;47.526;8.538;2022-11-30T02:18:20;96613.31;;;9.65;74.03
73024;BME280;61199;47.526;8.538;2022-11-30T02:32:06;96618.69;;;9.64;74.41
73024;BME280;61199;47.526;8.538;2022-11-30T02:34:36;96615.94;;;9.65;74.27
73024;BME280;61199;47.526;8.538;2022-11-30T02:37:04;96616.91;;;9.64;74.56
73024;BME280;61199;47.526;8.538;2022-11-30T02:39:31;96617.38;;;9.69;73.75
73024;BME280;61199;47.526;8.538;2022-11-30T02:41:58;96621.88;;;9.67;74.38
73024;BME280;61199;47.526;8.538;2022-11-30T02:44:25;96614.28;;;9.64;73.89
73024;BME280;61199;47.526;8.538;2022-11-30T02:47:01;96618.13;;;9.60;74.69
73024;BME280;61199;47.526;8.538;2022-11-30T02:52:04;96610.22;;;9.71;74.23
73024;BME280;61199;47.526;8.538;2022-11-30T02:54:32;96611.78;;;9.74;74.26
73024;BME280;61199;47.526;8.538;2022-11-30T02:56:59;96610.22;;;9.71;74.00
73024;BME280;61199;47.526;8.538;2022-11-30T02:59:25;96608.41;;;9.72;74.06
73024;BME280;61199;47.526;8.538;2022-11-30T03:01:52;96609.97;;;9.74;73.88
73024;BME280;61199;47.526;8.538;2022-11-30T03:04:18;96608.56;;;9.70;73.86
73024;BME280;61199;47.526;8.538;2022-11-30T03:06:44;96616.91;;;9.64;73.73
73024;BME280;61199;47.526;8.538;2022-11-30T03:09:11;96618.72;;;9.53;73.92
73024;BME280;61199;47.526;8.538;2022-11-30T03:11:38;96619.06;;;9.48;74.02
73024;BME280;61199;47.526;8.538;2022-11-30T03:14:05;96617.09;;;9.41;74.19
73024;BME280;61199;47.526;8.538;2022-11-30T03:16:31;96618.97;;;9.50;74.04
73024;BME280;61199;47.526;8.538;2022-11-30T03:18:58;96618.88;;;9.40;73.96
73024;BME280;61199;47.526;8.538;2022-11-30T03:21:25;96615.09;;;9.33;73.76
73024;BME280;61199;47.526;8.538;2022-11-30T03:23:51;96625.22;;;9.27;74.25
73024;BME280;61199;47.526;8.538;2022-11-30T03:26:18;96623.16;;;9.30;74.17
73024;BME280;61199;47.526;8.538;2022-11-30T03:28:44;96625.44;;;9.24;74.29
73024;BME280;61199;47.526;8.538;2022-11-30T03:31:11;96624.16;;;9.18;74.21
73024;BME280;61199;47.526;8.538;2022-11-30T03:33:42;96615.59;;;9.16;74.30
73024;BME280;61199;47.526;8.538;2022-11-30T03:36:10;96626.41;;;9.23;74.45
73024;BME280;61199;47.526;8.538;2022-11-30T03:38:37;96622.00;;;9.23;74.35
73024;BME280;61199;47.526;8.538;2022-11-30T03:41:10;96620.69;;;9.29;74.13
73024;BME280;61199;47.526;8.538;2022-11-30T03:43:37;96625.88;;;9.40;73.93
73024;BME280;61199;47.526;8.538;2022-11-30T03:46:03;96617.94;;;9.41;73.94
73024;BME280;61199;47.526;8.538;2022-11-30T03:48:30;96624.81;;;9.42;73.98
73024;BME280;61199;47.526;8.538;2022-11-30T03:50:57;96626.22;;;9.46;73.86
73024;BME280;61199;47.526;8.538;2022-11-30T03:53:24;96620.78;;;9.49;74.03
73024;BME280;61199;47.526;8.538;2022-11-30T03:55:56;96627.84;;;9.27;74.54
73024;BME280;61199;47.526;8.538;2022-11-30T03:58:23;96626.03;;;9.27;74.63
73024;BME280;61199;47.526;8.538;2022-11-30T04:00:58;96620.56;;;9.30;74.81
73024;BME280;61199;47.526;8.538;2022-11-30T04:03:25;96620.34;;;9.22;74.89
73024;BME280;61199;47.526;8.538;2022-11-30T04:05:52;96626.28;;;9.24;74.70
73024;BME280;61199;47.526;8.538;2022-11-30T04:08:18;96619.63;;;9.20;74.84
73024;BME280;61199;47.526;8.538;2022-11-30T04:10:46;96623.19;;;9.19;75.27
73024;BME280;61199;47.526;8.538;2022-11-30T04:13:13;96624.84;;;9.20;74.63
73024;BME280;61199;47.526;8.538;2022-11-30T04:15:39;96623.09;;;9.10;75.09
73024;BME280;61199;47.526;8.538;2022-11-30T04:18:05;96622.00;;;9.12;75.10
73024;BME280;61199;47.526;8.538;2022-11-30T04:20:32;96629.84;;;9.12;75.07
73024;BME280;61199;47.526;8.538;2022-11-30T04:23:05;96624.41;;;9.04;75.48
73024;BME280;61199;47.526;8.538;2022-11-30T04:25:31;96627.22;;;9.12;75.04
73024;BME280;61199;47.526;8.538;2022-11-30T04:27:58;96626.53;;;9.10;75.40
73024;BME280;61199;47.526;8.538;2022-11-30T04:30:24;96622.72;;;9.03;75.03
73024;BME280;61199;47.526;8.538;2022-11-30T04:32:51;96625.34;;;8.92;75.33
73024;BME280;61199;47.526;8.538;2022-11-30T04:35:17;96623.09;;;8.88;75.63
73024;BME280;61199;47.526;8.538;2022-11-30T04:37:43;96622.63;;;8.94;75.31
73024;BME280;61199;47.526;8.538;2022-11-30T04:40:11;96623.81;;;9.01;75.23
73024;BME280;61199;47.526;8.538;2022-11-30T04:42:38;96627.38;;;9.00;75.02
73024;BME280;61199;47.526;8.538;2022-11-30T04:45:04;96627.38;;;9.11;74.71
73024;BME280;61199;47.526;8.538;2022-11-30T04:47:31;96623.91;;;9.10;74.30
73024;BME280;61199;47.526;8.538;2022-11-30T04:49:57;96617.50;;;9.03;74.60
73024;BME280;61199;47.526;8.538;2022-11-30T04:52:23;96624.03;;;8.98;74.63
73024;BME280;61199;47.526;8.538;2022-11-30T04:54:50;96626.78;;;8.96;74.80
73024;BME280;61199;47.526;8.538;2022-11-30T04:57:17;96620.38;;;8.89;75.10
73024;BME280;61199;47.526;8.538;2022-11-30T04:59:44;96621.34;;;8.77;75.37
73024;BME280;61199;47.526;8.538;2022-11-30T05:02:10;96628.09;;;8.91;75.01
73024;BME280;61199;47.526;8.538;2022-11-30T05:04:37;96620.47;;;8.99;74.98
73024;BME280;61199;47.526;8.538;2022-11-30T05:07:03;96620.97;;;8.93;74.97
73024;BME280;61199;47.526;8.538;2022-11-30T05:09:30;96623.56;;;9.04;74.33
73024;BME280;61199;47.526;8.538;2022-11-30T05:11:57;96625.13;;;9.06;74.77
73024;BME280;61199;47.526;8.538;2022-11-30T05:14:23;96622.38;;;8.97;74.57
73024;BME280;61199;47.526;8.538;2022-11-30T05:16:50;96618.81;;;8.98;74.56
73024;BME280;61199;47.526;8.538;2022-11-30T05:19:17;96624.53;;;8.92;74.75
73024;BME280;61199;47.526;8.538;2022-11-30T05:21:43;96625.34;;;8.92;74.49
73024;BME280;61199;47.526;8.538;2022-11-30T05:24:11;96627.00;;;8.93;74.46
73024;BME280;61199;47.526;8.538;2022-11-30T05:26:37;96626.31;;;8.80;74.90
73024;BME280;61199;47.526;8.538;2022-11-30T05:29:04;96631.78;;;8.88;74.47
73024;BME280;61199;47.526;8.538;2022-11-30T05:31:31;96626.78;;;8.74;74.89
73024;BME280;61199;47.526;8.538;2022-11-30T05:33:58;96634.63;;;8.74;74.73
73024;BME280;61199;47.526;8.538;2022-11-30T05:36:24;96634.84;;;8.82;74.79
73024;BME280;61199;47.526;8.538;2022-11-30T05:38:50;96634.16;;;8.80;74.79
73024;BME280;61199;47.526;8.538;2022-11-30T05:41:17;96642.69;;;8.82;74.84
73024;BME280;61199;47.526;8.538;2022-11-30T05:43:43;96633.66;;;8.75;74.75
73024;BME280;61199;47.526;8.538;2022-11-30T05:46:10;96641.28;;;8.68;74.98
73024;BME280;61199;47.526;8.538;2022-11-30T05:48:36;96632.75;;;8.76;75.07
73024;BME280;61199;47.526;8.538;2022-11-30T05:51:07;96629.88;;;8.79;74.87
73024;BME280;61199;47.526;8.538;2022-11-30T05:53:34;96638.66;;;8.78;74.87
73024;BME280;61199;47.526;8.538;2022-11-30T05:56:06;96629.78;;;8.81;74.59
73024;BME280;61199;47.526;8.538;2022-11-30T05:58:33;96635.81;;;8.81;74.66
73024;BME280;61199;47.526;8.538;2022-11-30T06:01:00;96636.28;;;8.64;74.91
73024;BME280;61199;47.526;8.538;2022-11-30T06:03:28;96637.47;;;8.61;75.26
73024;BME280;61199;47.526;8.538;2022-11-30T06:05:55;96628.19;;;8.57;75.14
73024;BME280;61199;47.526;8.538;2022-11-30T06:08:22;96634.16;;;8.59;75.29
73024;BME280;61199;47.526;8.538;2022-11-30T06:10:48;96624.78;;;8.67;75.19
73024;BME280;61199;47.526;8.538;2022-11-30T06:13:15;96623.91;;;8.66;74.56
73024;BME280;61199;47.526;8.538;2022-11-30T06:15:42;96627.47;;;8.55;74.89
73024;BME280;61199;47.526;8.538;2022-11-30T06:18:10;96636.47;;;8.40;75.72
73024;BME280;61199;47.526;8.538;2022-11-30T06:20:37;96628.88;;;8.26;76.01
73024;BME280;61199;47.526;8.538;2022-11-30T06:23:04;96624.00;;;8.32;75.68
73024;BME280;61199;47.526;8.538;2022-11-30T06:25:31;96633.50;;;8.33;75.86
73024;BME280;61199;47.526;8.538;2022-11-30T06:27:57;96631.50;;;8.37;75.62
73024;BME280;61199;47.526;8.538;2022-11-30T06:30:23;96632.44;;;8.47;75.17
73024;BME280;61199;47.526;8.538;2022-11-30T06:32:51;96628.94;;;8.59;74.44
73024;BME280;61199;47.526;8.538;2022-11-30T06:35:18;96626.66;;;8.65;74.68
73024;BME280;61199;47.526;8.538;2022-11-30T06:37:44;96636.50;;;8.51;75.00
73024;BME280;61199;47.526;8.538;2022-11-30T06:40:12;96631.25;;;8.40;75.36
73024;BME280;61199;47.526;8.538;2022-11-30T06:42:38;96634.13;;;8.48;75.16
73024;BME280;61199;47.526;8.538;2022-11-30T06:45:05;96640.78;;;8.52;75.51
73024;BME280;61199;47.526;8.538;2022-11-30T06:47:32;96636.75;;;8.59;74.71
73024;BME280;61199;47.526;8.538;2022-11-30T06:49:58;96637.47;;;8.50;74.90
73024;BME280;61199;47.526;8.538;2022-11-30T06:52:25;96636.72;;;8.48;75.17
73024;BME280;61199;47.526;8.538;2022-11-30T06:54:51;96642.53;;;8.40;75.08
73024;BME280;61199;47.526;8.538;2022-11-30T06:57:17;96641.22;;;8.46;75.23
73024;BME280;61199;47.526;8.538;2022-11-30T06:59:44;96644.69;;;8.57;74.69
73024;BME280;61199;47.526;8.538;2022-11-30T07:02:13;96644.59;;;8.59;74.53
73024;BME280;61199;47.526;8.538;2022-11-30T07:04:43;96643.03;;;8.67;74.47
73024;BME280;61199;47.526;8.538;2022-11-30T07:07:11;96641.22;;;8.46;74.96
73024;BME280;61199;47.526;8.538;2022-11-30T07:09:37;96647.06;;;8.49;74.93
73024;BME280;61199;47.526;8.538;2022-11-30T07:12:04;96645.28;;;8.50;75.26
73024;BME280;61199;47.526;8.538;2022-11-30T07:14:30;96657.28;;;8.63;76.60
73024;BME280;61199;47.526;8.538;2022-11-30T07:16:56;96655.16;;;8.68;74.98
73024;BME280;61199;47.526;8.538;2022-11-30T07:19:23;96651.94;;;8.64;74.77
73024;BME280;61199;47.526;8.538;2022-11-30T07:21:50;96653.13;;;8.61;74.92
73024;BME280;61199;47.526;8.538;2022-11-30T07:24:16;96655.25;;;8.56;74.48
73024;BME280;61199;47.526;8.538;2022-11-30T07:27:02;96651.13;;;8.64;74.49
73024;BME280;61199;47.526;8.538;2022-11-30T07:29:29;96655.75;;;8.61;74.12
73024;BME280;61199;47.526;8.538;2022-11-30T07:31:55;96656.31;;;8.53;74.64
73024;BME280;61199;47.526;8.538;2022-11-30T07:34:21;96657.03;;;8.55;74.82
73024;BME280;61199;47.526;8.538;2022-11-30T07:36:48;96653.47;;;8.56;74.84
73024;BME280;61199;47.526;8.538;2022-11-30T07:39:14;96650.66;;;8.81;74.39
73024;BME280;61199;47.526;8.538;2022-11-30T07:41:41;96649.81;;;8.91;73.52
73024;BME280;61199;47.526;8.538;2022-11-30T07:44:08;96647.44;;;8.99;72.91
73024;BME280;61199;47.526;8.538;2022-11-30T07:46:35;96651.97;;;8.97;72.80
73024;BME280;61199;47.526;8.538;2022-11-30T07:49:03;96657.53;;;8.93;73.03
73024;BME280;61199;47.526;8.538;2022-11-30T07:51:30;96657.88;;;8.99;73.10
73024;BME280;61199;47.526;8.538;2022-11-30T07:53:57;96650.66;;;8.92;73.36
73024;BME280;61199;47.526;8.538;2022-11-30T07:56:25;96654.34;;;8.89;73.03
73024;BME280;61199;47.526;8.538;2022-11-30T07:58:55;96658.47;;;8.70;73.27
73024;BME280;61199;47.526;8.538;2022-11-30T08:01:24;96665.84;;;8.76;73.35
73024;BME280;61199;47.526;8.538;2022-11-30T08:03:51;96666.69;;;8.76;73.73
73024;BME280;61199;47.526;8.538;2022-11-30T08:06:19;96674.03;;;8.82;73.48
73024;BME280;61199;47.526;8.538;2022-11-30T08:08:48;96676.63;;;8.71;73.53
73024;BME280;61199;47.526;8.538;2022-11-30T08:11:17;96672.81;;;8.64;73.86
73024;BME280;61199;47.526;8.538;2022-11-30T08:13:44;96666.41;;;8.57;73.87
73024;BME280;61199;47.526;8.538;2022-11-30T08:16:17;96670.91;;;8.45;74.13
73024;BME280;61199;47.526;8.538;2022-11-30T08:18:43;96667.31;;;8.35;73.96
73024;BME280;61199;47.526;8.538;2022-11-30T08:21:12;96673.00;;;8.40;74.18
73024;BME280;61199;47.526;8.538;2022-11-30T08:23:41;96677.75;;;8.35;74.24
73024;BME280;61199;47.526;8.538;2022-11-30T08:26:12;96681.91;;;8.26;74.08
73024;BME280;61199;47.526;8.538;2022-11-30T08:28:39;96680.47;;;8.33;74.39
73024;BME280;61199;47.526;8.538;2022-11-30T08:31:08;96685.13;;;8.41;73.77
73024;BME280;61199;47.526;8.538;2022-11-30T08:33:36;96684.03;;;8.32;73.73
73024;BME280;61199;47.526;8.538;2022-11-30T08:38:36;96690.34;;;8.41;73.03
73024;BME280;61199;47.526;8.538;2022-11-30T08:41:04;96700.63;;;8.31;72.87
73024;BME280;61199;47.526;8.538;2022-11-30T08:43:31;96697.41;;;8.28;72.67
73024;BME280;61199;47.526;8.538;2022-11-30T08:45:58;96705.97;;;8.30;72.39
73024;BME280;61199;47.526;8.538;2022-11-30T08:48:24;96694.81;;;8.28;72.12
73024;BME280;61199;47.526;8.538;2022-11-30T08:50:51;96712.97;;;8.29;72.21
73024;BME280;61199;47.526;8.538;2022-11-30T08:53:17;96710.25;;;8.31;72.16
73024;BME280;61199;47.526;8.538;2022-11-30T08:55:57;96707.16;;;8.26;71.45
73024;BME280;61199;47.526;8.538;2022-11-30T08:58:24;96709.44;;;8.18;71.53
73024;BME280;61199;47.526;8.538;2022-11-30T09:00:51;96716.16;;;8.22;71.29
73024;BME280;61199;47.526;8.538;2022-11-30T09:03:19;96722.09;;;8.24;71.28
73024;BME280;61199;47.526;8.538;2022-11-30T09:05:45;96713.56;;;8.22;71.18
73024;BME280;61199;47.526;8.538;2022-11-30T09:08:12;96722.59;;;8.16;71.16
73024;BME280;61199;47.526;8.538;2022-11-30T09:10:38;96713.44;;;8.11;71.39
73024;BME280;61199;47.526;8.538;2022-11-30T09:13:05;96717.06;;;8.21;71.53
73024;BME280;61199;47.526;8.538;2022-11-30T09:15:31;96720.19;;;8.26;71.41
73024;BME280;61199;47.526;8.538;2022-11-30T09:17:57;96712.88;;;8.31;71.49
73024;BME280;61199;47.526;8.538;2022-11-30T09:20:24;96712.59;;;8.23;71.81
73024;BME280;61199;47.526;8.538;2022-11-30T09:22:50;96721.75;;;8.28;71.25
73024;BME280;61199;47.526;8.538;2022-11-30T09:25:17;96713.22;;;8.26;71.20
73024;BME280;61199;47.526;8.538;2022-11-30T09:27:44;96719.47;;;8.24;71.34
73024;BME280;61199;47.526;8.538;2022-11-30T09:30:10;96715.91;;;8.25;71.08
73024;BME280;61199;47.526;8.538;2022-11-30T09:32:37;96716.56;;;8.39;70.80
73024;BME280;61199;47.526;8.538;2022-11-30T09:35:03;96713.34;;;8.36;71.53
73024;BME280;61199;47.526;8.538;2022-11-30T09:37:37;96715.00;;;8.37;71.64
73024;BME280;61199;47.526;8.538;2022-11-30T09:40:04;96709.88;;;8.35;72.18
73024;BME280;61199;47.526;8.538;2022-11-30T09:42:42;96716.47;;;8.41;71.56
73024;BME280;61199;47.526;8.538;2022-11-30T09:45:20;96711.00;;;8.44;70.94
73024;BME280;61199;47.526;8.538;2022-11-30T09:50:39;96715.97;;;8.47;70.01
73024;BME280;61199;47.526;8.538;2022-11-30T09:53:14;96709.44;;;8.41;70.85
73024;BME280;61199;47.526;8.538;2022-11-30T09:55:41;96703.06;;;8.45;71.00
73024;BME280;61199;47.526;8.538;2022-11-30T10:00:58;96699.63;;;8.56;70.46
73024;BME280;61199;47.526;8.538;2022-11-30T10:03:31;96700.47;;;8.56;70.73
73024;BME280;61199;47.526;8.538;2022-11-30T10:06:03;96703.44;;;8.52;70.57
73024;BME280;61199;47.526;8.538;2022-11-30T10:09:00;96704.31;;;8.40;70.92
73024;BME280;61199;47.526;8.538;2022-11-30T10:11:42;96706.03;;;8.41;71.54
73024;BME280;61199;47.526;8.538;2022-11-30T10:14:18;96709.09;;;8.46;71.06
73024;BME280;61199;47.526;8.538;2022-11-30T10:19:52;96701.63;;;8.41;70.88
73024;BME280;61199;47.526;8.538;2022-11-30T10:25:36;96699.84;;;8.42;70.95
73024;BME280;61199;47.526;8.538;2022-11-30T10:28:14;96697.41;;;8.28;70.47
73024;BME280;61199;47.526;8.538;2022-11-30T10:31:02;96696.06;;;8.46;70.10
73024;BME280;61199;47.526;8.538;2022-11-30T10:33:37;96699.25;;;8.49;70.39
73024;BME280;61199;47.526;8.538;2022-11-30T10:36:10;96696.81;;;8.59;70.28
73024;BME280;61199;47.526;8.538;2022-11-30T10:38:46;96692.03;;;8.53;70.23
73024;BME280;61199;47.526;8.538;2022-11-30T10:41:25;96703.44;;;8.63;69.91
73024;BME280;61199;47.526;8.538;2022-11-30T10:44:14;96692.75;;;8.65;70.10
73024;BME280;61199;47.526;8.538;2022-11-30T10:47:09;96695.38;;;8.65;69.89
73024;BME280;61199;47.526;8.538;2022-11-30T10:49:38;96689.34;;;8.65;69.84
73024;BME280;61199;47.526;8.538;2022-11-30T10:52:07;96690.66;;;8.81;69.32
73024;BME280;61199;47.526;8.538;2022-11-30T10:54:35;96688.75;;;8.83;69.33
73024;BME280;61199;47.526;8.538;2022-11-30T10:57:03;96682.13;;;8.90;68.59
73024;BME280;61199;47.526;8.538;2022-11-30T10:59:45;96673.94;;;8.84;68.28
73024;BME280;61199;47.526;8.538;2022-11-30T11:02:33;96668.34;;;8.88;68.64
73024;BME280;61199;47.526;8.538;2022-11-30T11:10:48;96672.47;;;8.80;68.82
73024;BME280;61199;47.526;8.538;2022-11-30T11:13:40;96674.28;;;8.79;68.87
73024;BME280;61199;47.526;8.538;2022-11-30T11:16:11;96676.63;;;8.71;68.42
73024;BME280;61199;47.526;8.538;2022-11-30T11:18:53;96679.72;;;8.65;69.37
73024;BME280;61199;47.526;8.538;2022-11-30T11:21:21;96674.38;;;8.56;69.23
73024;BME280;61199;47.526;8.538;2022-11-30T11:23:51;96672.56;;;8.57;68.59
73024;BME280;61199;47.526;8.538;2022-11-30T11:26:21;96677.78;;;8.57;68.55
73024;BME280;61199;47.526;8.538;2022-11-30T11:28:50;96671.97;;;8.53;68.01
73024;BME280;61199;47.526;8.538;2022-11-30T11:33:54;96682.22;;;8.67;67.33
73024;BME280;61199;47.526;8.538;2022-11-30T11:36:32;96685.88;;;8.54;68.01
73024;BME280;61199;47.526;8.538;2022-11-30T11:38:59;96683.63;;;8.60;68.51
73024;BME280;61199;47.526;8.538;2022-11-30T11:41:31;96684.44;;;8.50;68.20
73024;BME280;61199;47.526;8.538;2022-11-30T11:46:53;96689.78;;;8.48;68.28
73024;BME280;61199;47.526;8.538;2022-11-30T11:49:25;96686.78;;;8.42;68.97
73024;BME280;61199;47.526;8.538;2022-11-30T11:54:42;96690.69;;;8.36;68.78
73024;BME280;61199;47.526;8.538;2022-11-30T11:57:15;96684.63;;;8.25;68.86
73024;BME280;61199;47.526;8.538;2022-11-30T12:00:02;96682.97;;;8.35;68.88
73024;BME280;61199;47.526;8.538;2022-11-30T12:02:40;96680.38;;;8.35;68.62
73024;BME280;61199;47.526;8.538;2022-11-30T12:08:01;96673.16;;;8.38;68.53
73024;BME280;61199;47.526;8.538;2022-11-30T12:10:42;96674.56;;;8.42;68.32
73024;BME280;61199;47.526;8.538;2022-11-30T12:13:20;96676.69;;;8.37;68.35
73024;BME280;61199;47.526;8.538;2022-11-30T12:22:12;96673.41;;;8.57;68.34
73024;BME280;61199;47.526;8.538;2022-11-30T12:25:35;96662.16;;;8.68;67.86
73024;BME280;61199;47.526;8.538;2022-11-30T12:27:48;96666.44;;;8.79;67.46
73024;BME280;61199;47.526;8.538;2022-11-30T12:30:27;96668.59;;;8.85;67.65
73024;BME280;61199;47.526;8.538;2022-11-30T12:33:11;96659.56;;;8.78;67.50
73024;BME280;61199;47.526;8.538;2022-11-30T12:35:49;96664.28;;;8.84;67.36
73024;BME280;61199;47.526;8.538;2022-11-30T12:43:47;96651.47;;;8.92;66.74
73024;BME280;61199;47.526;8.538;2022-11-30T12:49:11;96652.44;;;8.91;66.80
73024;BME280;61199;47.526;8.538;2022-11-30T12:57:13;96644.69;;;8.79;67.07
73024;BME280;61199;47.526;8.538;2022-11-30T13:00:00;96653.75;;;8.86;67.18
73024;BME280;61199;47.526;8.538;2022-11-30T13:05:30;96653.59;;;8.65;67.64
73024;BME280;61199;47.526;8.538;2022-11-30T13:08:12;96652.88;;;8.74;67.65
73024;BME280;61199;47.526;8.538;2022-11-30T13:10:45;96652.19;;;8.62;67.44
73024;BME280;61199;47.526;8.538;2022-11-30T13:13:18;96653.81;;;8.41;68.58
73024;BME280;61199;47.526;8.538;2022-11-30T13:15:47;96656.16;;;8.33;68.48
73024;BME280;61199;47.526;8.538;2022-11-30T13:18:17;96653.31;;;8.25;69.27
73024;BME280;61199;47.526;8.538;2022-11-30T13:20:54;96653.19;;;8.26;69.25
73024;BME280;61199;47.526;8.538;2022-11-30T13:23:35;96656.16;;;8.22;69.20
73024;BME280;61199;47.526;8.538;2022-11-30T13:26:18;96653.97;;;8.16;69.27
73024;BME280;61199;47.526;8.538;2022-11-30T13:28:54;96651.53;;;8.02;69.36
73024;BME280;61199;47.526;8.538;2022-11-30T13:31:27;96647.75;;;8.06;69.84
73024;BME280;61199;47.526;8.538;2022-11-30T13:36:36;96663.63;;;8.03;69.89
73024;BME280;61199;47.526;8.538;2022-11-30T13:41:44;96667.91;;;8.04;69.74
73024;BME280;61199;47.526;8.538;2022-11-30T13:44:30;96670.72;;;8.01;69.54
73024;BME280;61199;47.526;8.538;2022-11-30T13:46:59;96678.25;;;8.16;69.21
73024;BME280;61199;47.526;8.538;2022-11-30T13:49:29;96675.28;;;8.10;69.44
73024;BME280;61199;47.526;8.538;2022-11-30T13:51:56;96673.59;;;8.09;69.46
73024;BME280;61199;47.526;8.538;2022-11-30T13:54:46;96671.19;;;7.95;69.93
73024;BME280;61199;47.526;8.538;2022-11-30T14:14:57;96682.69;;;7.69;69.83
73024;BME280;61199;47.526;8.538;2022-11-30T14:17:33;96679.63;;;7.75;69.51
73024;BME280;61199;47.526;8.538;2022-11-30T14:20:14;96675.41;;;7.85;69.50
73024;BME280;61199;47.526;8.538;2022-11-30T14:22:42;96673.06;;;7.93;68.77
73024;BME280;61199;47.526;8.538;2022-11-30T14:25:14;96675.47;;;7.96;68.23
73024;BME280;61199;47.526;8.538;2022-11-30T14:27:42;96677.59;;;8.02;67.55
73024;BME280;61199;47.526;8.538;2022-11-30T14:30:17;96677.91;;;7.86;66.68
73024;BME280;61199;47.526;8.538;2022-11-30T14:32:50;96681.03;;;7.91;66.46
73024;BME280;61199;47.526;8.538;2022-11-30T14:35:19;96679.94;;;7.94;66.19
73024;BME280;61199;47.526;8.538;2022-11-30T14:37:52;96688.66;;;8.05;66.05
73024;BME280;61199;47.526;8.538;2022-11-30T14:40:20;96694.31;;;7.76;66.38
73024;BME280;61199;47.526;8.538;2022-11-30T14:42:58;96684.91;;;7.86;66.08
73024;BME280;61199;47.526;8.538;2022-11-30T14:45:31;96697.78;;;7.76;66.36
73024;BME280;61199;47.526;8.538;2022-11-30T14:48:06;96692.00;;;7.84;66.47
73024;BME280;61199;47.526;8.538;2022-11-30T14:50:35;96685.38;;;7.91;66.16
73024;BME280;61199;47.526;8.538;2022-11-30T14:58:44;96676.84;;;7.89;65.98
73024;BME280;61199;47.526;8.538;2022-11-30T15:01:17;96690.03;;;7.75;66.36
73024;BME280;61199;47.526;8.538;2022-11-30T15:03:44;96689.34;;;7.73;66.98
73024;BME280;61199;47.526;8.538;2022-11-30T15:06:19;96691.16;;;7.60;67.09
73024;BME280;61199;47.526;8.538;2022-11-30T15:08:52;96690.19;;;7.73;66.48